createdAt,value
2018-07-25T00:01:38.838Z,97910.38
2018-07-25T00:04:10.645Z,97909.19
2018-07-25T00:07:25.613Z,97907.00
2018-07-25T00:09:55.953Z,97903.81
2018-07-25T00:12:26.781Z,97910.91
2018-07-25T00:14:59.824Z,97905.38
2018-07-25T00:17:33.800Z,97910.44
2018-07-25T00:20:05.213Z,97909.72
2018-07-25T00:22:47.717Z,97906.88
2018-07-25T00:25:19.766Z,97909.34
2018-07-25T00:27:49.967Z,97905.61
2018-07-25T00:30:21.053Z,97901.25
2018-07-25T00:32:51.198Z,97900.23
2018-07-25T00:35:21.080Z,97897.20
2018-07-25T00:37:50.871Z,97897.02
2018-07-25T00:40:23.846Z,97903.63
2018-07-25T00:42:55.207Z,97897.59
2018-07-25T00:45:25.038Z,97896.38
2018-07-25T00:47:54.894Z,97899.16
2018-07-25T00:50:25.211Z,97902.48
2018-07-25T00:53:02.220Z,97899.03
2018-07-25T00:55:32.095Z,97904.64
2018-07-25T00:58:02.015Z,97900.42
2018-07-25T01:00:32.217Z,97903.30
2018-07-25T01:03:04.848Z,97903.91
2018-07-25T01:05:35.604Z,97906.67
2018-07-25T01:09:20.982Z,97904.84
2018-07-25T01:14:44.425Z,97906.77
2018-07-25T01:17:14.301Z,97910.77
2018-07-25T01:19:44.431Z,97913.41
2018-07-25T01:22:14.216Z,97910.44
2018-07-25T01:24:44.803Z,97910.67
2018-07-25T01:27:14.473Z,97906.33
2018-07-25T01:29:46.524Z,97905.78
2018-07-25T01:32:16.705Z,97907.85
2018-07-25T01:34:46.860Z,97909.79
2018-07-25T01:37:16.908Z,97912.73
2018-07-25T01:39:51.904Z,97908.02
2018-07-25T01:42:23.231Z,97911.73
2018-07-25T01:44:53.773Z,97915.24
2018-07-25T01:52:24.359Z,97918.17
2018-07-25T01:54:56.650Z,97915.33
2018-07-25T01:57:26.444Z,97912.41
2018-07-25T01:59:57.082Z,97912.33
2018-07-25T02:02:28.952Z,97921.75
2018-07-25T02:05:05.245Z,97914.59
2018-07-25T02:07:36.131Z,97924.13
2018-07-25T02:10:09.454Z,97924.53
2018-07-25T02:12:39.504Z,97928.70
2018-07-25T02:15:10.263Z,97922.08
2018-07-25T02:17:41.068Z,97925.49
2018-07-25T02:20:14.828Z,97922.45
2018-07-25T02:22:44.894Z,97923.03
2018-07-25T02:25:14.782Z,97924.35
2018-07-25T02:27:48.308Z,97927.99
2018-07-25T02:30:20.282Z,97920.83
2018-07-25T02:32:53.462Z,97926.59
2018-07-25T02:35:23.764Z,97925.41
2018-07-25T02:37:53.869Z,97928.20
2018-07-25T02:40:24.336Z,97929.81
2018-07-25T02:45:36.110Z,97927.85
2018-07-25T02:48:08.693Z,97930.70
2018-07-25T02:50:43.274Z,97927.05
2018-07-25T02:53:13.272Z,97922.08
2018-07-25T02:55:43.042Z,97930.21
2018-07-25T02:58:12.685Z,97930.21
2018-07-25T03:00:42.632Z,97937.02
2018-07-25T03:03:12.543Z,97939.34
2018-07-25T03:05:42.458Z,97937.18
2018-07-25T03:08:12.358Z,97938.71
2018-07-25T03:10:55.739Z,97940.60
2018-07-25T03:13:27.380Z,97943.04
2018-07-25T03:16:06.525Z,97946.80
2018-07-25T03:18:37.369Z,97948.85
2018-07-25T03:21:07.142Z,97951.42
2018-07-25T03:23:37.638Z,97961.08
2018-07-25T03:29:01.499Z,97970.61
2018-07-25T03:31:31.726Z,97965.60
2018-07-25T03:34:01.979Z,97965.69
2018-07-25T03:36:31.854Z,97967.72
2018-07-25T03:39:01.666Z,97973.61
2018-07-25T03:41:33.948Z,97973.20
2018-07-25T03:44:03.830Z,97974.25
2018-07-25T03:46:33.736Z,97976.41
2018-07-25T03:49:07.708Z,97970.51
2018-07-25T03:51:37.665Z,97978.08
2018-07-25T03:54:07.675Z,97979.20
2018-07-25T03:56:37.788Z,97984.60
2018-07-25T03:59:07.579Z,97979.88
2018-07-25T04:01:37.632Z,97981.13
2018-07-25T04:04:07.445Z,97988.93
2018-07-25T04:06:37.596Z,97981.27
2018-07-25T04:09:09.031Z,97985.88
2018-07-25T04:11:38.945Z,97983.35
2018-07-25T04:14:08.818Z,97985.43
2018-07-25T04:16:38.593Z,97992.28
2018-07-25T04:19:10.571Z,97989.79
2018-07-25T04:21:42.091Z,97994.23
2018-07-25T04:24:11.903Z,97993.52
2018-07-25T04:26:41.752Z,97997.20
2018-07-25T04:29:12.797Z,98000.05
2018-07-25T04:31:45.062Z,98000.41
2018-07-25T04:34:15.601Z,98000.26
2018-07-25T04:36:45.682Z,97994.48
2018-07-25T04:39:15.780Z,98003.40
2018-07-25T04:41:47.950Z,98000.32
2018-07-25T04:44:17.718Z,98009.80
2018-07-25T04:46:47.545Z,98000.62
2018-07-25T04:49:18.033Z,98007.99
2018-07-25T04:51:48.502Z,98008.80
2018-07-25T04:54:18.927Z,98005.88
2018-07-25T04:56:48.732Z,98007.96
2018-07-25T04:59:18.570Z,98014.58
2018-07-25T05:01:48.450Z,98022.50
2018-07-25T05:04:22.317Z,98019.77
2018-07-25T05:06:52.599Z,98018.44
2018-07-25T05:09:22.908Z,98020.45
2018-07-25T05:11:52.826Z,98017.76
2018-07-25T05:14:22.964Z,98018.38
2018-07-25T05:16:52.867Z,98023.29
2018-07-25T05:19:22.659Z,98021.09
2018-07-25T05:21:52.597Z,98019.87
2018-07-25T05:24:22.517Z,98023.09
2018-07-25T05:26:52.841Z,98027.70
2018-07-25T05:29:23.105Z,98024.85
2018-07-25T05:31:53.177Z,98025.94
2018-07-25T05:34:23.018Z,98027.73
2018-07-25T05:36:53.665Z,98031.84
2018-07-25T05:39:23.459Z,98034.08
2018-07-25T05:41:53.438Z,98036.67
2018-07-25T05:44:23.550Z,98041.70
2018-07-25T05:46:53.392Z,98041.47
2018-07-25T05:49:23.779Z,98049.05
2018-07-25T05:51:53.730Z,98047.60
2018-07-25T05:54:23.811Z,98053.69
2018-07-25T05:56:53.663Z,98048.19
2018-07-25T05:59:23.526Z,98046.91
2018-07-25T06:01:53.307Z,98051.97
2018-07-25T06:04:23.524Z,98056.35
2018-07-25T06:06:53.960Z,98054.09
2018-07-25T06:09:23.873Z,98049.69
2018-07-25T06:11:53.840Z,98050.59
2018-07-25T06:14:23.833Z,98053.62
2018-07-25T06:16:53.639Z,98050.25
2018-07-25T06:19:24.803Z,98050.12
2018-07-25T06:21:54.708Z,98051.82
2018-07-25T06:24:24.534Z,98052.86
2018-07-25T06:26:54.378Z,98051.57
2018-07-25T06:29:24.214Z,98052.42
2018-07-25T06:31:54.413Z,98053.09
2018-07-25T06:34:24.274Z,98053.27
2018-07-25T06:36:54.138Z,98053.23
2018-07-25T06:39:23.982Z,98054.07
2018-07-25T06:41:54.192Z,98059.38
2018-07-25T06:44:25.325Z,98060.50
2018-07-25T06:48:09.799Z,98065.80
2018-07-25T06:50:39.647Z,98067.35
2018-07-25T06:53:09.507Z,98066.79
2018-07-25T06:55:39.303Z,98070.38
2018-07-25T06:58:10.401Z,98071.80
2018-07-25T07:00:40.520Z,98066.66
2018-07-25T07:03:11.022Z,98073.59
2018-07-25T07:05:40.833Z,98082.91
2018-07-25T07:08:10.743Z,98076.62
2018-07-25T07:10:40.463Z,98080.48
2018-07-25T07:13:10.530Z,98081.19
2018-07-25T07:15:40.371Z,98081.14
2018-07-25T07:18:10.229Z,98082.86
2018-07-25T07:20:40.070Z,98075.30
2018-07-25T07:23:09.894Z,98077.69
2018-07-25T07:25:39.667Z,98079.92
2018-07-25T07:28:10.169Z,98082.77
2018-07-25T07:30:40.001Z,98080.17
2018-07-25T07:33:09.778Z,98080.41
2018-07-25T07:35:40.235Z,98077.79
2018-07-25T07:38:10.961Z,98084.84
2018-07-25T07:40:40.877Z,98086.81
2018-07-25T07:43:11.294Z,98082.09
2018-07-25T07:45:41.074Z,98083.91
2018-07-25T07:48:10.823Z,98087.55
2018-07-25T07:50:40.809Z,98090.10
2018-07-25T07:53:10.534Z,98084.27
2018-07-25T07:55:40.286Z,98083.20
2018-07-25T07:58:10.347Z,98089.59
2018-07-25T08:00:40.196Z,98085.58
2018-07-25T08:03:10.104Z,98086.75
2018-07-25T08:05:39.948Z,98088.32
2018-07-25T08:08:12.086Z,98084.86
2018-07-25T08:10:41.869Z,98088.81
2018-07-25T08:13:11.581Z,98097.09
2018-07-25T08:15:41.319Z,98091.83
2018-07-25T08:18:11.298Z,98093.86
2018-07-25T08:20:41.068Z,98093.58
2018-07-25T08:23:10.913Z,98091.36
2018-07-25T08:25:40.684Z,98097.25
2018-07-25T08:28:10.479Z,98095.66
2018-07-25T08:30:40.329Z,98095.23
2018-07-25T08:33:10.344Z,98095.07
2018-07-25T08:35:40.041Z,98095.13
2018-07-25T08:38:09.807Z,98097.84
2018-07-25T08:40:41.899Z,98097.39
2018-07-25T08:43:11.816Z,98097.73
2018-07-25T08:45:41.581Z,98110.50
2018-07-25T08:48:11.647Z,98107.46
2018-07-25T08:50:41.329Z,98111.27
2018-07-25T08:53:11.089Z,98112.70
2018-07-25T08:55:41.217Z,98115.72
2018-07-25T08:58:10.919Z,98116.72
2018-07-25T09:00:40.868Z,98123.81
2018-07-25T09:03:10.664Z,98122.44
2018-07-25T09:05:41.488Z,98121.20
2018-07-25T09:08:11.520Z,98121.65
2018-07-25T09:10:42.373Z,98120.49
2018-07-25T09:13:12.257Z,98118.18
2018-07-25T09:15:43.367Z,98121.09
2018-07-25T09:18:13.200Z,98119.80
2018-07-25T09:20:42.969Z,98120.56
2018-07-25T09:23:12.966Z,98124.47
2018-07-25T09:25:42.745Z,98123.30
2018-07-25T09:28:12.537Z,98127.46
2018-07-25T09:30:43.722Z,98128.86
2018-07-25T09:33:13.487Z,98123.75
2018-07-25T09:35:43.304Z,98122.00
2018-07-25T09:38:13.180Z,98121.55
2018-07-25T09:40:44.001Z,98119.63
2018-07-25T09:43:13.861Z,98121.08
2018-07-25T09:45:44.181Z,98117.03
2018-07-25T09:48:13.934Z,98118.80
2018-07-25T09:50:44.263Z,98117.58
2018-07-25T09:53:14.096Z,98111.15
2018-07-25T09:55:44.360Z,98122.10
2018-07-25T09:58:14.227Z,98117.16
2018-07-25T10:00:47.684Z,98102.34
2018-07-25T10:03:25.085Z,98107.30
2018-07-25T10:06:00.150Z,98108.69
2018-07-25T10:08:37.198Z,98106.77
2018-07-25T10:11:07.306Z,98106.52
2018-07-25T10:13:37.236Z,98099.65
2018-07-25T10:16:07.240Z,98101.30
2018-07-25T10:18:37.014Z,98093.02
2018-07-25T10:21:07.394Z,98087.64
2018-07-25T10:23:37.161Z,98087.19
2018-07-25T10:26:06.908Z,98089.94
2018-07-25T10:28:36.925Z,98086.86
2018-07-25T10:31:24.292Z,98086.45
2018-07-25T10:34:00.125Z,98087.78
2018-07-25T10:36:34.754Z,98087.08
2018-07-25T10:39:13.939Z,98072.04
2018-07-25T10:41:48.131Z,98074.44
2018-07-25T10:44:24.024Z,98078.48
2018-07-25T10:47:00.430Z,98072.80
2018-07-25T10:49:34.859Z,98073.34
2018-07-25T10:52:07.394Z,98067.70
2018-07-25T10:57:22.274Z,98053.20
2018-07-25T10:59:57.202Z,98052.56
2018-07-25T11:02:28.445Z,98058.58
2018-07-25T11:05:04.420Z,98056.17
2018-07-25T11:07:40.600Z,98060.70
2018-07-25T11:10:13.099Z,98054.39
2018-07-25T11:12:45.952Z,98056.13
2018-07-25T11:15:17.504Z,98042.11
2018-07-25T11:17:49.540Z,98039.46
2018-07-25T11:20:28.744Z,98046.44
2018-07-25T11:26:01.329Z,98034.30
2018-07-25T11:28:49.539Z,98036.97
2018-07-25T11:31:30.124Z,98038.59
2018-07-25T11:34:10.076Z,98040.80
2018-07-25T11:36:48.002Z,98041.27
2018-07-25T11:39:26.303Z,98032.97
2018-07-25T11:42:06.850Z,98030.39
2018-07-25T11:44:37.984Z,98027.03
2018-07-25T11:47:10.339Z,98027.59
2018-07-25T11:49:46.369Z,98030.28
2018-07-25T11:52:19.682Z,98023.69
2018-07-25T11:54:53.237Z,98030.60
2018-07-25T11:58:02.669Z,98032.06
2018-07-25T12:00:38.084Z,98029.16
2018-07-25T12:03:14.181Z,98023.48
2018-07-25T12:05:51.458Z,98020.67
2018-07-25T12:08:25.431Z,98014.63
2018-07-25T12:11:04.205Z,98012.13
2018-07-25T12:13:36.488Z,98008.80
2018-07-25T12:16:14.883Z,98012.19
2018-07-25T12:18:48.281Z,98007.05
2018-07-25T12:21:23.573Z,98003.23
2018-07-25T12:23:56.243Z,98000.33
2018-07-25T12:26:28.039Z,97998.51
2018-07-25T12:28:59.839Z,97997.33
2018-07-25T12:31:35.947Z,97995.19
2018-07-25T12:34:06.873Z,97996.31
2018-07-25T12:36:44.383Z,97996.33
2018-07-25T12:39:14.708Z,97997.30
2018-07-25T12:41:50.447Z,97989.61
2018-07-25T12:44:21.059Z,97995.23
2018-07-25T12:46:56.258Z,97989.15
2018-07-25T12:49:54.630Z,97985.31
2018-07-25T12:52:32.516Z,97996.47
2018-07-25T12:55:08.470Z,97988.54
2018-07-25T12:57:38.935Z,97976.34
2018-07-25T13:00:10.719Z,97982.81
2018-07-25T13:02:41.299Z,97986.20
2018-07-25T13:05:12.461Z,97980.38
2018-07-25T13:07:42.573Z,97982.28
2018-07-25T13:10:12.793Z,97975.76
2018-07-25T13:12:43.273Z,97981.61
2018-07-25T13:15:13.360Z,97980.96
2018-07-25T13:17:43.506Z,97984.30
2018-07-25T13:20:13.577Z,97982.23
2018-07-25T13:22:43.426Z,97982.59
2018-07-25T13:25:13.393Z,97983.55
2018-07-25T13:27:44.639Z,97974.47
2018-07-25T13:30:15.589Z,97984.00
2018-07-25T13:32:46.484Z,97985.27
2018-07-25T13:35:16.392Z,97991.00
2018-07-25T13:37:46.295Z,97983.58
2018-07-25T13:40:16.216Z,97989.12
2018-07-25T13:42:46.333Z,97985.84
2018-07-25T13:45:16.233Z,97979.14
2018-07-25T13:47:46.085Z,97981.56
2018-07-25T13:50:16.089Z,97979.87
2018-07-25T13:52:46.909Z,97978.30
2018-07-25T13:55:16.914Z,97981.28
2018-07-25T13:57:46.969Z,97980.39
2018-07-25T14:00:16.764Z,97975.80
2018-07-25T14:02:47.886Z,97969.23
2018-07-25T14:05:17.784Z,97960.30
2018-07-25T14:07:47.418Z,97951.34
2018-07-25T14:10:17.229Z,97961.17
2018-07-25T14:12:47.040Z,97949.97
2018-07-25T14:15:16.900Z,97954.02
2018-07-25T14:17:47.015Z,97945.81
2018-07-25T14:20:17.039Z,97955.73
2018-07-25T14:22:46.971Z,97947.88
2018-07-25T14:25:16.827Z,97953.81
2018-07-25T14:27:47.046Z,97958.02
2018-07-25T14:30:17.025Z,97941.78
2018-07-25T14:35:50.178Z,97922.35
2018-07-25T14:38:19.993Z,97913.48
2018-07-25T14:40:50.315Z,97906.01
2018-07-25T14:43:20.243Z,97909.03
2018-07-25T14:45:50.149Z,97911.02
2018-07-25T14:48:19.944Z,97913.80
2018-07-25T14:50:49.834Z,97913.23
2018-07-25T14:53:19.719Z,97907.92
2018-07-25T14:55:57.081Z,97920.20
2018-07-25T14:58:26.946Z,97914.20
2018-07-25T15:00:56.759Z,97916.39
2018-07-25T15:03:26.880Z,97919.03
2018-07-25T15:05:56.787Z,97906.91
2018-07-25T15:08:26.679Z,97905.58
2018-07-25T15:10:57.670Z,97901.47
2018-07-25T15:13:27.851Z,97890.20
2018-07-25T15:15:58.657Z,97895.39
2018-07-25T15:18:29.340Z,97892.38
2018-07-25T15:20:59.452Z,97892.39
2018-07-25T15:23:40.590Z,97891.08
2018-07-25T15:26:10.725Z,97890.04
2018-07-25T15:28:43.315Z,97890.83
2018-07-25T15:31:13.919Z,97892.62
2018-07-25T15:33:44.868Z,97894.54
2018-07-25T15:36:24.953Z,97890.95
2018-07-25T15:38:55.609Z,97888.31
2018-07-25T15:41:26.032Z,97895.33
2018-07-25T15:43:56.094Z,97890.69
2018-07-25T15:46:26.527Z,97881.02
2018-07-25T15:48:57.014Z,97880.52
2018-07-25T15:51:27.956Z,97880.23
2018-07-25T15:53:58.651Z,97871.06
2018-07-25T15:56:29.160Z,97868.77
2018-07-25T15:58:59.496Z,97875.75
2018-07-25T16:01:30.258Z,97867.93
2018-07-25T16:04:00.231Z,97877.63
2018-07-25T16:06:30.171Z,97866.58
2018-07-25T16:09:00.637Z,97870.20
2018-07-25T16:11:31.271Z,97865.31
2018-07-25T16:14:01.170Z,97866.48
2018-07-25T16:16:31.430Z,97867.81
2018-07-25T16:19:01.492Z,97867.20
2018-07-25T16:21:33.796Z,97862.77
2018-07-25T16:24:03.742Z,97860.81
2018-07-25T16:26:33.668Z,97863.09
2018-07-25T16:29:05.325Z,97855.00
2018-07-25T16:31:36.505Z,97854.63
2018-07-25T16:34:06.913Z,97850.34
2018-07-25T16:36:37.661Z,97839.98
2018-07-25T16:39:10.767Z,97838.85
2018-07-25T16:41:41.500Z,97829.06
2018-07-25T16:44:12.413Z,97834.19
2018-07-25T16:46:43.113Z,97836.74
2018-07-25T16:49:13.051Z,97840.97
2018-07-25T16:51:44.007Z,97842.05
2018-07-25T16:54:15.596Z,97838.85
2018-07-25T16:56:48.365Z,97843.33
2018-07-25T16:59:18.925Z,97843.37
2018-07-25T17:01:49.991Z,97845.33
2018-07-25T17:04:20.804Z,97850.34
2018-07-25T17:06:51.757Z,97846.65
2018-07-25T17:09:22.953Z,97844.90
2018-07-25T17:11:54.062Z,97842.45
2018-07-25T17:14:24.330Z,97843.30
2018-07-25T17:16:55.019Z,97846.80
2018-07-25T17:19:25.883Z,97848.70
2018-07-25T17:21:57.171Z,97843.80
2018-07-25T17:24:27.628Z,97840.23
2018-07-25T17:26:58.562Z,97843.40
2018-07-25T17:29:28.364Z,97844.28
2018-07-25T17:31:58.752Z,97850.78
2018-07-25T17:34:35.201Z,97849.06
2018-07-25T17:37:05.188Z,97849.23
2018-07-25T17:39:35.888Z,97854.28
2018-07-25T17:42:06.290Z,97849.17
2018-07-25T17:44:36.911Z,97853.28
2018-07-25T17:47:07.145Z,97853.89
2018-07-25T17:49:38.607Z,97857.34
2018-07-25T17:52:09.881Z,97859.61
2018-07-25T17:54:45.031Z,97857.09
2018-07-25T17:57:15.688Z,97859.41
2018-07-25T17:59:46.203Z,97859.50
2018-07-25T18:02:16.198Z,97862.33
2018-07-25T18:04:48.200Z,97843.31
2018-07-25T18:07:22.730Z,97868.51
2018-07-25T18:09:53.562Z,97871.66
2018-07-25T18:12:24.220Z,97873.87
2018-07-25T18:14:55.857Z,97881.42
2018-07-25T18:17:26.014Z,97883.52
2018-07-25T18:20:02.031Z,97889.53
2018-07-25T18:22:31.856Z,97894.82
2018-07-25T18:25:05.976Z,97898.17
2018-07-25T18:27:35.968Z,97902.30
2018-07-25T18:30:07.842Z,97905.69
2018-07-25T18:32:38.036Z,97911.08
2018-07-25T18:35:23.979Z,97912.83
2018-07-25T18:37:54.299Z,97913.55
2018-07-25T18:40:25.692Z,97915.88
2018-07-25T18:42:56.058Z,97906.41
2018-07-25T18:45:26.989Z,97900.78
2018-07-25T18:47:56.868Z,97897.58
2018-07-25T18:50:27.107Z,97897.11
2018-07-25T18:52:56.827Z,97906.42
2018-07-25T18:55:37.901Z,97903.32
2018-07-25T18:58:08.566Z,97909.12
2018-07-25T19:00:39.889Z,97909.45
2018-07-25T19:03:09.744Z,97906.50
2018-07-25T19:05:40.001Z,97907.77
2018-07-25T19:08:09.971Z,97903.39
2018-07-25T19:10:41.354Z,97903.30
2018-07-25T19:13:17.658Z,97904.87
2018-07-25T19:15:58.864Z,97907.80
2018-07-25T19:18:29.484Z,97905.64
2018-07-25T19:20:59.945Z,97901.32
2018-07-25T19:24:45.255Z,97910.50
2018-07-25T19:27:16.700Z,97915.34
2018-07-25T19:29:47.493Z,97921.45
2018-07-25T19:32:17.918Z,97927.33
2018-07-25T19:34:48.609Z,97922.48
2018-07-25T19:37:19.343Z,97913.84
2018-07-25T19:39:49.844Z,97916.72
2018-07-25T19:42:19.979Z,97914.33
2018-07-25T19:44:50.348Z,97917.79
2018-07-25T19:47:20.727Z,97929.51
2018-07-25T19:49:50.875Z,97927.34
2018-07-25T19:52:29.637Z,97929.48
2018-07-25T19:55:01.055Z,97928.22
2018-07-25T19:57:32.054Z,97928.80
2018-07-25T20:00:03.391Z,97929.28
2018-07-25T20:02:34.420Z,97927.05
2018-07-25T20:05:10.312Z,97923.69
2018-07-25T20:07:41.331Z,97927.55
2018-07-25T20:10:14.015Z,97931.16
2018-07-25T20:12:45.300Z,97932.80
2018-07-25T20:16:22.477Z,97930.84
2018-07-25T20:18:53.742Z,97941.39
2018-07-25T20:21:25.259Z,97934.87
2018-07-25T20:23:56.567Z,97935.94
2018-07-25T20:26:27.832Z,97933.81
2018-07-25T20:28:58.190Z,97939.48
2018-07-25T20:31:29.005Z,97939.72
2018-07-25T20:33:59.550Z,97943.13
2018-07-25T20:36:30.653Z,97943.63
2018-07-25T20:39:04.393Z,97948.02
2018-07-25T20:41:37.294Z,97945.44
2018-07-25T20:44:10.465Z,97950.85
2018-07-25T20:46:40.453Z,97950.64
2018-07-25T20:49:14.445Z,97948.84
2018-07-25T20:54:56.257Z,97947.53
2018-07-25T20:57:26.687Z,97953.47
2018-07-25T21:00:07.001Z,97955.41
2018-07-25T21:02:47.549Z,97955.50
2018-07-25T21:05:31.945Z,97954.66
2018-07-25T21:08:04.844Z,97961.77
2018-07-25T21:10:47.201Z,97959.31
2018-07-25T21:13:37.379Z,97965.02
2018-07-25T21:16:22.192Z,97966.87
2018-07-25T21:18:52.881Z,97964.03
2018-07-25T21:21:24.671Z,97971.19
2018-07-25T21:23:57.657Z,97968.55
2018-07-25T21:26:31.462Z,97965.31
2018-07-25T21:29:02.214Z,97968.05
2018-07-25T21:31:40.521Z,97969.23
2018-07-25T21:34:13.866Z,97963.94
2018-07-25T21:36:44.036Z,97970.97
2018-07-25T21:39:15.898Z,97968.02
2018-07-25T21:42:02.104Z,97969.56
2018-07-25T21:44:38.048Z,97973.58
2018-07-25T21:47:10.885Z,97975.77
2018-07-25T21:49:43.298Z,97977.78
2018-07-25T21:52:17.719Z,97980.95
2018-07-25T21:54:47.663Z,97982.13
2018-07-25T21:57:18.806Z,97982.15
2018-07-25T21:59:48.670Z,97985.17
2018-07-25T22:02:18.475Z,97976.16
2018-07-25T22:04:48.484Z,97979.48
2018-07-25T22:07:18.604Z,97980.80
2018-07-25T22:09:48.454Z,97977.23
2018-07-25T22:12:18.583Z,97975.55
2018-07-25T22:14:48.309Z,97976.58
2018-07-25T22:17:23.543Z,97982.42
2018-07-25T22:19:53.489Z,97976.94
2018-07-25T22:22:25.887Z,97973.78
2018-07-25T22:27:47.123Z,97973.37
2018-07-25T22:30:16.948Z,97977.88
2018-07-25T22:32:46.717Z,97969.09
2018-07-25T22:35:20.766Z,97966.11
2018-07-25T22:37:54.922Z,97969.62
2018-07-25T22:40:25.115Z,97968.02
2018-07-25T22:42:55.297Z,97968.39
2018-07-25T22:45:27.887Z,97965.79
2018-07-25T22:47:58.238Z,97966.98
2018-07-25T22:50:28.389Z,97964.32
2018-07-25T22:52:59.166Z,97967.48
2018-07-25T22:55:29.020Z,97973.80
2018-07-25T22:57:59.175Z,97965.02
2018-07-25T23:00:28.919Z,97970.54
2018-07-25T23:02:58.834Z,97970.05
2018-07-25T23:05:28.700Z,97975.23
2018-07-25T23:07:58.507Z,97971.77
2018-07-25T23:10:28.525Z,97970.28
2018-07-25T23:12:58.685Z,97978.63
2018-07-25T23:15:28.662Z,97976.30
2018-07-25T23:17:58.570Z,97976.16
2018-07-25T23:20:28.647Z,97973.00
2018-07-25T23:22:59.914Z,97973.69
2018-07-25T23:25:30.494Z,97968.35
2018-07-25T23:28:01.642Z,97977.17
2018-07-25T23:30:31.435Z,97978.53
2018-07-25T23:33:01.400Z,97987.53
2018-07-25T23:35:32.158Z,97984.20
2018-07-25T23:38:02.452Z,97978.39
2018-07-25T23:40:32.758Z,97987.70
2018-07-25T23:43:03.955Z,97992.88
2018-07-25T23:45:35.490Z,97988.20
2018-07-25T23:48:05.357Z,97983.69
2018-07-25T23:50:35.492Z,97981.84
2018-07-25T23:53:05.367Z,97987.02
2018-07-25T23:55:35.200Z,97980.52
